Head Waters, Virginia
Current Conditions -  °F | °C
As of 6:15 PM on Wednesday 17 Dec 2014 (Local Time) from KVBW Reporting Station
Clear Clear  
Wind Chill: 40°   Ceiling: Unl
Heat Index: 40°   Visibility: 10mi
Dew Point: 21°   Wind: 3mph
Humidity: 48%   Direction: 260°W
Pressure: 30.02"   Gusts: NA
Location:  38.32°N, 79.41°W
Report Text: KVBW 172315Z AUTO 26003KT 10SM CLR 04/M06 A3002 RMK AO2 T00421060
Loading
Personal Weather Stations






























Interactive Weather Map New forecast layout! Learn more

10-Day Weather Forecast

Advertisements
Track Severe Weather on mobile